Time;durP1;ratioP1;P1;durP2;ratioP2;P2;SDS_P1;SDS_P2;PMS_P1;PMS_P2;Temp;Humidity;BMP_temperature;BMP_pressure;BME280_temperature;BME280_humidity;BME280_pressure;Samples;Min_cycle;Max_cycle;Signal;HPM_P1;HPM_P2
2021/06/03 00:02:12;;;;;;;18.10;9.20;;;358.90;2304.00;;;;;;5091725;28;20502;-78
2021/06/03 00:04:38;;;;;;;17.65;9.55;;;358.90;2304.00;;;;;;5091125;28;20095;-78
2021/06/03 00:07:05;;;;;;;9.68;8.00;;;359.00;2304.00;;;;;;5091008;28;20048;-78
2021/06/03 00:09:31;;;;;;;8.93;7.20;;;359.00;2304.00;;;;;;5092506;28;20029;-78
2021/06/03 00:11:57;;;;;;;11.65;8.45;;;359.00;2278.40;;;;;;5093648;28;20020;-79
2021/06/03 00:14:23;;;;;;;10.50;7.75;;;358.90;2304.00;;;;;;5094186;28;20021;-79
2021/06/03 00:16:49;;;;;;;13.88;8.05;;;358.90;2304.00;;;;;;5094890;28;20028;-78
2021/06/03 00:19:15;;;;;;;11.13;7.95;;;358.90;2304.00;;;;;;5093873;28;20028;-80
2021/06/03 00:21:42;;;;;;;10.38;7.68;;;358.90;2304.00;;;;;;5089748;28;20476;-76
2021/06/03 00:24:08;;;;;;;14.60;8.32;;;358.90;2304.00;;;;;;5084809;28;20034;-76
2021/06/03 00:26:35;;;;;;;12.80;7.45;;;358.90;2304.00;;;;;;5080277;28;20029;-76
2021/06/03 00:29:01;;;;;;;10.50;7.38;;;358.90;2304.00;;;;;;5086088;28;20415;-77
2021/06/03 00:31:27;;;;;;;11.73;7.90;;;358.90;2304.00;;;;;;5092203;28;20043;-77
2021/06/03 00:33:53;;;;;;;13.55;8.45;;;358.80;2304.00;;;;;;5082913;28;20373;-77
2021/06/03 00:36:19;;;;;;;13.70;8.13;;;358.80;2304.00;;;;;;5077578;28;20036;-76
2021/06/03 00:38:45;;;;;;;13.75;8.57;;;358.80;2304.00;;;;;;5088034;28;20027;-76
2021/06/03 00:41:14;;;;;;;15.52;9.07;;;358.80;2304.00;;;;;;5084425;28;20040;-77
2021/06/03 00:43:40;;;;;;;10.40;7.28;;;358.80;2329.60;;;;;;5094056;28;20031;-76
2021/06/03 00:46:07;;;;;;;11.88;7.93;;;358.80;2304.00;;;;;;5095751;28;20020;-80
2021/06/03 00:48:33;;;;;;;9.38;7.68;;;358.80;2329.60;;;;;;5091460;28;20104;-79
2021/06/03 00:51:01;;;;;;;11.27;7.80;;;358.70;2304.00;;;;;;5084631;28;20473;-79
2021/06/03 00:53:27;;;;;;;14.82;8.15;;;358.70;2329.60;;;;;;5090202;28;20063;-77
2021/06/03 00:55:57;;;;;;;14.00;8.77;;;358.70;2304.00;;;;;;5084703;28;20025;-79
2021/06/03 00:58:23;;;;;;;8.93;7.57;;;358.70;2304.00;;;;;;5084060;28;20054;-77
2021/06/03 01:00:52;;;;;;;14.63;8.00;;;358.70;2304.00;;;;;;5087051;28;20027;-77
2021/06/03 01:03:19;;;;;;;11.35;6.75;;;358.60;2329.60;;;;;;5086307;28;20028;-77
2021/06/03 01:05:49;;;;;;;9.05;8.10;;;358.60;2329.60;;;;;;5074690;28;20093;-79
2021/06/03 01:08:19;;;;;;;8.18;6.75;;;358.60;2329.60;;;;;;5094875;28;20383;-79
2021/06/03 01:10:59;;;;;;;11.73;8.02;;;358.50;2329.60;;;;;;5087034;28;20025;-77
2021/06/03 01:13:30;;;;;;;13.07;9.15;;;358.50;2329.60;;;;;;5095024;28;20016;-79
2021/06/03 01:15:58;;;;;;;9.77;7.53;;;358.40;2329.60;;;;;;5095153;28;20020;-77
2021/06/03 01:18:24;;;;;;;14.02;8.20;;;358.40;2329.60;;;;;;5093775;28;20047;-80
2021/06/03 01:20:51;;;;;;;10.98;7.20;;;358.40;2329.60;;;;;;5089399;28;20024;-79
2021/06/03 01:23:37;;;;;;;12.68;8.43;;;333.60;2329.60;;;;;;5087609;28;20042;-77
2021/06/03 01:26:05;;;;;;;12.52;8.15;;;333.60;2329.60;;;;;;5080308;28;20082;-79
2021/06/03 01:28:33;;;;;;;13.35;8.20;;;333.50;2329.60;;;;;;5089360;28;20032;-77
2021/06/03 01:31:00;;;;;;;8.57;7.28;;;333.40;2329.60;;;;;;5093586;28;20028;-77
2021/06/03 01:33:30;;;;;;;12.55;8.05;;;333.40;2329.60;;;;;;5082958;28;20016;-79
2021/06/03 01:36:00;;;;;;;11.77;8.82;;;333.40;2329.60;;;;;;5078960;28;20067;-79
2021/06/03 01:38:32;;;;;;;9.80;7.82;;;333.40;2329.60;;;;;;5077302;28;20028;-78
2021/06/03 01:40:59;;;;;;;11.27;8.52;;;333.30;2329.60;;;;;;5083754;28;20031;-78
2021/06/03 01:43:27;;;;;;;10.13;8.13;;;333.30;2329.60;;;;;;5088567;28;20047;-78
2021/06/03 01:45:54;;;;;;;10.73;7.82;;;333.20;2329.60;;;;;;5093347;28;20020;-79
2021/06/03 01:48:21;;;;;;;10.90;8.63;;;333.20;2329.60;;;;;;5088434;28;20027;-79
2021/06/03 01:50:48;;;;;;;9.93;8.90;;;333.20;2329.60;;;;;;5093484;28;20105;-79
2021/06/03 01:53:18;;;;;;;9.73;7.70;;;333.20;2329.60;;;;;;5092380;28;20032;-78
2021/06/03 01:55:44;;;;;;;10.98;9.18;;;333.20;2329.60;;;;;;5086254;28;20028;-78
2021/06/03 01:58:11;;;;;;;10.10;7.90;;;333.20;2329.60;;;;;;5090015;28;20124;-79
2021/06/03 02:00:37;;;;;;;10.48;7.43;;;333.20;2329.60;;;;;;5079372;28;20127;-79
2021/06/03 02:03:03;;;;;;;11.50;7.20;;;333.20;2329.60;;;;;;5073332;28;20719;-79
2021/06/03 02:05:29;;;;;;;8.68;7.63;;;333.10;2329.60;;;;;;5086950;28;20024;-79
2021/06/03 02:07:55;;;;;;;10.43;8.27;;;333.10;2329.60;;;;;;5096969;28;20126;-79
2021/06/03 02:10:22;;;;;;;13.23;8.95;;;333.10;2329.60;;;;;;5087100;28;20027;-79
2021/06/03 02:12:59;;;;;;;10.13;8.55;;;333.00;2329.60;;;;;;5083371;28;20114;-79
2021/06/03 02:15:29;;;;;;;10.02;8.45;;;333.10;2329.60;;;;;;5091869;28;20035;-79
2021/06/03 02:17:58;;;;;;;12.32;9.18;;;333.10;2329.60;;;;;;5092528;28;20036;-78
2021/06/03 02:20:29;;;;;;;10.50;9.40;;;333.10;2329.60;;;;;;5088886;28;20102;-78
2021/06/03 02:22:55;;;;;;;11.50;8.27;;;333.10;2329.60;;;;;;5088575;28;20492;-78
2021/06/03 02:25:24;;;;;;;9.77;8.10;;;333.20;2329.60;;;;;;5085851;28;20496;-78
2021/06/03 02:27:50;;;;;;;10.35;8.57;;;333.00;2329.60;;;;;;5088402;28;20064;-78
2021/06/03 02:30:18;;;;;;;12.05;8.48;;;333.10;2329.60;;;;;;5089042;28;20437;-78
2021/06/03 02:32:45;;;;;;;10.00;8.43;;;333.10;2329.60;;;;;;5085447;28;20044;-79
2021/06/03 02:35:12;;;;;;;13.27;9.13;;;333.00;2329.60;;;;;;5090832;28;20032;-78
2021/06/03 02:37:40;;;;;;;10.13;7.82;;;333.00;2329.60;;;;;;5080314;28;20051;-78
2021/06/03 02:40:09;;;;;;;19.20;9.38;;;333.00;2329.60;;;;;;5074465;28;20385;-78
2021/06/03 02:42:39;;;;;;;12.93;9.40;;;333.00;2329.60;;;;;;5088973;28;20058;-79
2021/06/03 02:45:12;;;;;;;15.68;9.43;;;333.00;2329.60;;;;;;5091587;28;20084;-78
2021/06/03 02:47:39;;;;;;;13.18;10.10;;;333.00;2329.60;;;;;;5091745;28;20032;-78
2021/06/03 02:50:09;;;;;;;12.73;10.10;;;333.00;2329.60;;;;;;5078735;28;20029;-79
2021/06/03 02:52:36;;;;;;;15.88;10.98;;;333.00;2329.60;;;;;;5089210;28;20086;-79
2021/06/03 02:55:04;;;;;;;14.20;10.20;;;333.00;2329.60;;;;;;5087433;28;20055;-79
2021/06/03 02:57:30;;;;;;;13.43;11.05;;;332.90;2329.60;;;;;;5088803;28;20024;-79
2021/06/03 02:59:56;;;;;;;16.00;11.40;;;332.80;2329.60;;;;;;5090712;28;20032;-79
2021/06/03 03:02:22;;;;;;;15.40;11.45;;;332.80;2329.60;;;;;;5092122;28;20464;-79
2021/06/03 03:04:47;;;;;;;12.18;9.45;;;332.80;2329.60;;;;;;5089475;28;20057;-78
2021/06/03 03:07:13;;;;;;;14.70;10.63;;;332.80;2329.60;;;;;;5078665;28;20049;-78
2021/06/03 03:09:39;;;;;;;18.58;11.07;;;332.80;2329.60;;;;;;5085636;28;20358;-79
2021/06/03 03:12:05;;;;;;;10.85;9.73;;;332.80;2329.60;;;;;;5080537;28;20120;-79
2021/06/03 03:14:31;;;;;;;11.48;9.75;;;332.80;2329.60;;;;;;5087865;28;20074;-78
2021/06/03 03:16:57;;;;;;;13.75;9.60;;;332.80;2329.60;;;;;;5081606;28;20028;-78
2021/06/03 03:19:23;;;;;;;13.10;10.10;;;332.80;2329.60;;;;;;5090140;28;20034;-78
2021/06/03 03:21:48;;;;;;;14.20;9.65;;;332.80;2329.60;;;;;;5085684;28;20032;-77
2021/06/03 03:24:14;;;;;;;15.10;9.82;;;332.80;2329.60;;;;;;5081244;28;20807;-77
2021/06/03 03:26:40;;;;;;;14.13;9.98;;;308.10;2304.00;;;;;;5087856;28;20024;-77
2021/06/03 03:29:06;;;;;;;16.02;10.30;;;332.80;2329.60;;;;;;5083506;28;20050;-77
2021/06/03 03:31:31;;;;;;;12.85;10.63;;;332.80;2329.60;;;;;;5086211;28;20024;-77
2021/06/03 03:34:02;;;;;;;13.77;11.20;;;332.90;2329.60;;;;;;5081268;28;20031;-79
2021/06/03 03:36:29;;;;;;;22.83;11.85;;;333.00;2329.60;;;;;;5081602;28;20032;-79
2021/06/03 03:38:56;;;;;;;17.05;11.88;;;333.00;2329.60;;;;;;5083292;28;20103;-79
2021/06/03 03:41:22;;;;;;;14.48;11.65;;;333.00;2329.60;;;;;;5085038;28;20024;-78
2021/06/03 03:43:50;;;;;;;18.80;12.50;;;333.20;2329.60;;;;;;5087736;28;20020;-78
2021/06/03 03:46:16;;;;;;;14.70;11.52;;;333.20;2329.60;;;;;;5083165;28;20016;-78
2021/06/03 03:48:42;;;;;;;14.13;11.30;;;333.30;2329.60;;;;;;5076483;28;20591;-78
2021/06/03 03:51:12;;;;;;;12.70;10.77;;;333.40;2329.60;;;;;;5081214;28;20062;-78
2021/06/03 03:53:39;;;;;;;15.45;10.20;;;333.50;2329.60;;;;;;5085159;28;20037;-79
2021/06/03 03:56:05;;;;;;;11.55;9.30;;;333.60;2329.60;;;;;;5081413;28;20495;-79
2021/06/03 03:58:31;;;;;;;13.73;9.50;;;333.70;2329.60;;;;;;5080025;28;20107;-80
2021/06/03 04:00:57;;;;;;;19.17;12.27;;;333.70;2329.60;;;;;;5078788;28;20020;-78
2021/06/03 04:03:23;;;;;;;11.90;9.40;;;358.40;2329.60;;;;;;5086118;28;20031;-79
2021/06/03 04:05:49;;;;;;;13.68;9.48;;;358.40;2329.60;;;;;;5090550;28;20132;-78
2021/06/03 04:08:14;;;;;;;17.48;10.32;;;358.40;2329.60;;;;;;5087223;28;20582;-78
2021/06/03 04:10:40;;;;;;;12.32;10.23;;;358.60;2329.60;;;;;;5090906;28;20599;-78
2021/06/03 04:13:06;;;;;;;11.52;9.57;;;358.70;2329.60;;;;;;5091830;28;20020;-78
2021/06/03 04:15:31;;;;;;;12.63;9.45;;;358.90;2329.60;;;;;;5092328;28;20024;-78
2021/06/03 04:17:57;;;;;;;14.88;9.55;;;359.00;2304.00;;;;;;5088064;28;20071;-79
2021/06/03 04:20:24;;;;;;;14.18;8.90;;;359.10;2304.00;;;;;;5085797;28;20024;-78
2021/06/03 04:22:50;;;;;;;13.68;9.35;;;359.20;2278.40;;;;;;5081862;28;20028;-79
2021/06/03 04:25:16;;;;;;;10.63;8.80;;;384.00;2278.40;;;;;;5081687;28;20119;-79
2021/06/03 04:27:42;;;;;;;10.95;8.13;;;384.10;2252.80;;;;;;5091402;28;20421;-79
2021/06/03 04:30:16;;;;;;;12.15;10.20;;;384.30;2227.20;;;;;;5090551;28;20025;-79
2021/06/03 04:32:42;;;;;;;13.38;10.48;;;384.30;2227.20;;;;;;5086965;28;20063;-79
2021/06/03 04:35:09;;;;;;;11.35;8.45;;;384.40;2227.20;;;;;;5091921;28;20051;-78
2021/06/03 04:37:35;;;;;;;11.57;9.77;;;384.60;2201.60;;;;;;5084801;28;20070;-78
2021/06/03 04:40:01;;;;;;;11.48;10.27;;;384.70;2176.00;;;;;;5091632;28;20024;-79
2021/06/03 04:42:27;;;;;;;19.25;10.55;;;384.90;2176.00;;;;;;5091681;28;20384;-78
2021/06/03 04:44:53;;;;;;;14.35;10.15;;;409.60;2201.60;;;;;;5084400;28;20021;-78
2021/06/03 04:47:18;;;;;;;15.52;10.48;;;409.80;2176.00;;;;;;5088496;28;20024;-78
2021/06/03 04:49:44;;;;;;;22.60;10.98;;;409.80;2201.60;;;;;;5090299;28;20423;-78
2021/06/03 04:52:25;;;;;;;15.65;9.10;;;409.90;2176.00;;;;;;5085587;28;20464;-77
2021/06/03 04:55:13;;;;;;;11.32;8.77;;;410.10;2176.00;;;;;;5092335;28;20062;-77
2021/06/03 04:57:40;;;;;;;9.77;8.60;;;410.20;2176.00;;;;;;5095231;28;20095;-77
2021/06/03 05:00:11;;;;;;;11.55;7.97;;;410.30;2150.40;;;;;;5085063;28;20040;-76
2021/06/03 05:02:37;;;;;;;11.40;8.60;;;410.40;2124.80;;;;;;5093107;28;20038;-77
2021/06/03 05:05:04;;;;;;;12.07;9.15;;;435.20;2124.80;;;;;;5084334;28;20056;-77
2021/06/03 05:07:30;;;;;;;9.65;8.40;;;435.30;2124.80;;;;;;5089693;28;20737;-77
2021/06/03 05:09:56;;;;;;;13.20;8.13;;;435.50;2099.20;;;;;;5088354;28;20052;-77
2021/06/03 05:12:21;;;;;;;10.20;7.30;;;435.70;2099.20;;;;;;5092728;28;20425;-79
2021/06/03 05:14:47;;;;;;;20.00;7.43;;;435.90;2073.60;;;;;;5090315;28;20040;-78
2021/06/03 05:17:13;;;;;;;12.32;9.05;;;435.80;2099.20;;;;;;5085468;28;20024;-79
2021/06/03 05:19:40;;;;;;;12.35;8.80;;;436.10;2073.60;;;;;;5091056;28;20024;-78
2021/06/03 05:22:06;;;;;;;10.38;7.68;;;460.80;2073.60;;;;;;5094982;28;20035;-78
2021/06/03 05:24:32;;;;;;;12.95;9.77;;;461.00;2073.60;;;;;;5093774;28;20103;-78
2021/06/03 05:26:58;;;;;;;12.32;8.48;;;461.10;2048.00;;;;;;5084481;28;20039;-78
2021/06/03 05:29:25;;;;;;;18.85;15.30;;;461.30;2022.40;;;;;;5091642;28;20461;-78
2021/06/03 05:31:52;;;;;;;10.32;7.88;;;461.40;2048.00;;;;;;5083980;28;20051;-79
2021/06/03 05:34:18;;;;;;;11.23;8.82;;;461.50;1996.80;;;;;;5089265;28;20073;-79
2021/06/03 05:36:44;;;;;;;13.35;8.13;;;486.40;1996.80;;;;;;5083832;28;20040;-79
2021/06/03 05:39:10;;;;;;;10.20;6.90;;;486.60;1971.20;;;;;;5092892;28;20029;-79
2021/06/03 05:41:37;;;;;;;11.60;7.43;;;486.90;1945.60;;;;;;5090624;28;20067;-79
2021/06/03 05:44:04;;;;;;;11.23;6.72;;;487.10;1868.80;;;;;;5089360;28;20389;-78
2021/06/03 05:46:30;;;;;;;7.47;6.28;;;487.30;1843.20;;;;;;5089146;28;20024;-78
2021/06/03 05:48:56;;;;;;;11.60;6.80;;;512.30;1843.20;;;;;;5081466;28;20028;-79
2021/06/03 05:51:22;;;;;;;10.88;6.35;;;512.30;1843.20;;;;;;5087279;28;20020;-79
2021/06/03 05:53:47;;;;;;;11.35;7.38;;;512.60;1817.60;;;;;;5086916;28;20114;-79
2021/06/03 05:56:13;;;;;;;9.25;6.75;;;512.90;1792.00;;;;;;5087532;28;20032;-78
2021/06/03 05:58:39;;;;;;;6.72;4.68;;;537.70;1792.00;;;;;;5079085;28;20016;-79
2021/06/03 06:01:04;;;;;;;9.98;5.20;;;537.80;1766.40;;;;;;5082411;28;20063;-79
2021/06/03 06:03:38;;;;;;;7.50;4.60;;;538.20;1740.80;;;;;;5079367;28;20036;-80
2021/06/03 06:08:43;;;;;;;8.73;4.65;;;538.40;1689.60;;;;;;5086948;28;20092;-79
2021/06/03 06:11:10;;;;;;;5.80;5.05;;;538.40;1689.60;;;;;;5092277;28;20019;-79
2021/06/03 06:13:36;;;;;;;8.85;4.07;;;538.50;1664.00;;;;;;5080642;28;20039;-79
2021/06/03 06:16:03;;;;;;;8.77;4.15;;;538.50;1689.60;;;;;;5084767;28;20096;-79
2021/06/03 06:18:29;;;;;;;5.65;3.88;;;563.40;1689.60;;;;;;5087567;28;20032;-79
2021/06/03 06:20:56;;;;;;;5.75;4.13;;;563.50;1664.00;;;;;;5080520;28;20035;-79
2021/06/03 06:23:21;;;;;;;6.95;3.88;;;563.50;1664.00;;;;;;5082970;28;20036;-79
2021/06/03 06:25:48;;;;;;;7.43;3.42;;;563.60;1664.00;;;;;;5085872;28;20140;-78
2021/06/03 06:28:16;;;;;;;4.25;3.30;;;563.70;1612.80;;;;;;5091351;28;20452;-79
2021/06/03 06:30:43;;;;;;;6.93;3.53;;;563.70;1587.20;;;;;;5090300;28;20518;-79
2021/06/03 06:33:09;;;;;;;5.90;3.50;;;563.80;1587.20;;;;;;5086765;28;20028;-79
2021/06/03 06:35:35;;;;;;;5.85;3.55;;;563.80;1587.20;;;;;;5087593;28;20058;-81
2021/06/03 06:38:02;;;;;;;6.07;3.92;;;564.00;1612.80;;;;;;5089499;28;20036;-80
2021/06/03 06:40:29;;;;;;;6.55;4.38;;;564.10;1587.20;;;;;;5087391;28;20411;-80
2021/06/03 06:42:55;;;;;;;4.97;3.50;;;588.80;1561.60;;;;;;5084604;28;20024;-80
2021/06/03 06:45:26;;;;;;;5.95;2.80;;;589.00;1561.60;;;;;;5084763;28;20016;-78
2021/06/03 06:47:53;;;;;;;5.95;3.10;;;589.30;1484.80;;;;;;5089068;28;20039;-79
2021/06/03 06:50:20;;;;;;;8.95;3.00;;;589.30;1459.20;;;;;;5087280;28;20070;-80
2021/06/03 06:52:45;;;;;;;5.85;3.22;;;589.60;1484.80;;;;;;5086717;28;20028;-80
2021/06/03 06:55:12;;;;;;;7.68;3.17;;;614.60;1459.20;;;;;;5083122;28;20044;-80
2021/06/03 06:57:38;;;;;;;6.07;2.92;;;614.80;1459.20;;;;;;5081953;28;20508;-80
2021/06/03 07:00:10;;;;;;;10.98;3.83;;;614.80;1408.00;;;;;;5086024;28;20058;-81
2021/06/03 07:02:36;;;;;;;4.53;2.75;;;614.80;1408.00;;;;;;5083341;28;20028;-80
2021/06/03 07:05:04;;;;;;;5.93;3.35;;;614.90;1382.40;;;;;;5087750;28;20036;-81
2021/06/03 07:07:30;;;;;;;6.35;3.10;;;614.90;1356.80;;;;;;5084705;28;20055;-81
2021/06/03 07:09:55;;;;;;;4.03;3.17;;;614.90;1382.40;;;;;;5088286;28;20032;-81
2021/06/03 07:12:22;;;;;;;6.38;3.78;;;614.70;1408.00;;;;;;5087365;28;20032;-82
2021/06/03 07:14:48;;;;;;;5.85;3.20;;;614.80;1382.40;;;;;;5086647;28;20058;-78
2021/06/03 07:17:13;;;;;;;4.10;3.45;;;614.80;1382.40;;;;;;5081062;28;20404;-80
2021/06/03 07:19:39;;;;;;;6.00;2.95;;;614.80;1331.20;;;;;;5085127;28;20043;-81
2021/06/03 07:22:08;;;;;;;10.68;4.00;;;614.80;1356.80;;;;;;5080157;28;20060;-84
2021/06/03 07:24:37;;;;;;;6.78;4.25;;;614.90;1356.80;;;;;;5081381;28;20020;-81
2021/06/03 07:27:04;;;;;;;4.28;3.08;;;615.00;1331.20;;;;;;5085732;28;20020;-83
2021/06/03 07:29:30;;;;;;;4.90;2.90;;;615.00;1305.60;;;;;;5081079;28;20034;-82
2021/06/03 07:31:56;;;;;;;7.07;3.53;;;615.10;1331.20;;;;;;5078729;28;20020;-81
2021/06/03 07:34:22;;;;;;;4.47;3.33;;;615.10;1305.60;;;;;;5083616;28;20016;-83
2021/06/03 07:36:48;;;;;;;6.25;2.90;;;615.10;1280.00;;;;;;5086419;28;20040;-81
2021/06/03 07:39:13;;;;;;;4.32;3.70;;;615.00;1254.40;;;;;;5081637;28;20020;-81
2021/06/03 07:41:39;;;;;;;5.47;2.80;;;615.00;1254.40;;;;;;5080524;28;21458;-81
2021/06/03 07:44:05;;;;;;;4.82;2.63;;;640.00;1228.80;;;;;;5100123;28;20036;-81
2021/06/03 07:46:32;;;;;;;4.28;2.78;;;640.10;1177.60;;;;;;5079534;28;20008;-82
2021/06/03 07:48:59;;;;;;;5.43;2.50;;;640.20;1203.20;;;;;;5088636;28;20024;-82
2021/06/03 07:51:25;;;;;;;10.68;3.08;;;640.30;1152.00;;;;;;5086310;28;20435;-81
2021/06/03 07:53:51;;;;;;;8.30;4.68;;;640.50;1177.60;;;;;;5081886;28;20158;-81
2021/06/03 07:56:17;;;;;;;4.70;3.05;;;640.70;1177.60;;;;;;5078547;28;20128;-81
2021/06/03 07:58:43;;;;;;;5.28;3.03;;;640.70;1100.80;;;;;;5083620;28;20039;-82
2021/06/03 08:01:09;;;;;;;7.40;3.42;;;640.70;1100.80;;;;;;5085078;28;20515;-83
2021/06/03 08:03:34;;;;;;;3.67;2.28;;;665.60;1126.40;;;;;;5080612;28;20032;-82
2021/06/03 08:06:00;;;;;;;3.83;2.63;;;665.70;1126.40;;;;;;5080450;28;20036;-79
2021/06/03 08:08:26;;;;;;;3.22;2.35;;;666.00;1100.80;;;;;;5083547;28;20028;-82
2021/06/03 08:10:52;;;;;;;6.80;2.78;;;665.90;1126.40;;;;;;5081286;28;20082;-83
2021/06/03 08:13:18;;;;;;;6.68;2.92;;;665.90;1100.80;;;;;;5085057;28;20528;-82
2021/06/03 08:15:45;;;;;;;4.82;2.83;;;665.80;1100.80;;;;;;5081764;28;20028;-84
2021/06/03 08:18:13;;;;;;;7.22;2.33;;;666.10;1100.80;;;;;;5084823;28;20613;-84
2021/06/03 08:20:48;;;;;;;4.72;2.47;;;666.10;1049.60;;;;;;5084008;28;20075;-81
2021/06/03 08:23:16;;;;;;;4.15;2.33;;;666.10;1075.20;;;;;;5081174;28;20040;-84
2021/06/03 08:25:42;;;;;;;4.30;2.78;;;666.20;1075.20;;;;;;5082619;28;20024;-84
2021/06/03 08:28:08;;;;;;;4.57;2.45;;;665.70;1049.60;;;;;;5083548;28;20024;-85
2021/06/03 08:30:35;;;;;;;6.75;3.00;;;665.90;1024.00;;;;;;5083103;28;20031;-80
2021/06/03 08:33:01;;;;;;;4.32;2.70;;;666.30;1024.00;;;;;;5087842;28;20124;-82
2021/06/03 08:35:27;;;;;;;9.70;2.90;;;691.40;998.40;;;;;;5087959;28;20016;-83
2021/06/03 08:37:56;;;;;;;3.15;2.50;;;666.50;1024.00;;;;;;5089294;28;20420;-83
2021/06/03 08:40:25;;;;;;;3.42;2.40;;;666.30;1024.00;;;;;;5090006;28;20486;-82
2021/06/03 08:42:52;;;;;;;4.47;2.65;;;666.30;1024.00;;;;;;5088937;28;20126;-83
2021/06/03 08:45:20;;;;;;;3.80;2.33;;;666.20;1024.00;;;;;;5082128;28;20023;-82
2021/06/03 08:47:46;;;;;;;7.78;2.47;;;666.50;1024.00;;;;;;5085682;28;20028;-80
2021/06/03 08:50:13;;;;;;;5.32;2.88;;;666.40;998.40;;;;;;5083024;28;20066;-79
2021/06/03 08:52:39;;;;;;;4.57;2.38;;;666.50;998.40;;;;;;5081176;28;20420;-80
2021/06/03 08:55:08;;;;;;;3.75;2.70;;;666.50;972.80;;;;;;5082842;28;20032;-80
2021/06/03 08:57:34;;;;;;;3.60;2.47;;;691.20;998.40;;;;;;5090353;28;20066;-80
2021/06/03 09:00:01;;;;;;;6.53;2.33;;;691.40;947.20;;;;;;5089898;28;20791;-79
2021/06/03 09:02:27;;;;;;;4.45;2.30;;;691.70;947.20;;;;;;5090036;28;20028;-79
2021/06/03 09:04:52;;;;;;;5.07;2.28;;;691.40;947.20;;;;;;5084103;28;20020;-82
2021/06/03 09:07:37;;;;;;;4.97;2.13;;;691.40;972.80;;;;;;5084524;28;20051;-79
2021/06/03 09:10:27;;;;;;;3.53;2.13;;;691.70;947.20;;;;;;5085836;28;20038;-79
2021/06/03 09:13:13;;;;;;;5.13;2.53;;;692.00;947.20;;;;;;5087499;28;20384;-82
2021/06/03 09:15:47;;;;;;;5.72;3.47;;;692.00;947.20;;;;;;5088855;28;20052;-79
2021/06/03 09:18:14;;;;;;;6.70;2.88;;;717.00;972.80;;;;;;5077011;28;20043;-80
2021/06/03 09:20:43;;;;;;;6.05;2.83;;;717.00;998.40;;;;;;5082609;28;20055;-80
2021/06/03 09:23:32;;;;;;;4.40;2.85;;;716.80;947.20;;;;;;5093082;28;20507;-81
2021/06/03 09:26:05;;;;;;;4.85;2.97;;;717.00;947.20;;;;;;5088449;28;20021;-82
2021/06/03 09:28:45;;;;;;;5.43;2.83;;;692.10;972.80;;;;;;5090248;28;20023;-81
2021/06/03 09:31:29;;;;;;;6.32;2.83;;;691.90;972.80;;;;;;5097272;28;20024;-80
2021/06/03 09:33:57;;;;;;;4.88;3.22;;;716.80;947.20;;;;;;5087108;28;20020;-81
2021/06/03 09:36:31;;;;;;;3.90;2.20;;;716.90;972.80;;;;;;5084775;28;20059;-81
2021/06/03 09:39:01;;;;;;;4.72;3.13;;;692.00;972.80;;;;;;5088898;28;20035;-80
2021/06/03 09:41:29;;;;;;;5.90;3.33;;;717.10;947.20;;;;;;5082169;28;20052;-80
2021/06/03 09:44:10;;;;;;;3.00;2.00;;;717.30;947.20;;;;;;5088172;28;20115;-81
2021/06/03 09:47:00;;;;;;;4.65;2.78;;;717.30;921.60;;;;;;5083517;28;20024;-81
2021/06/03 09:49:41;;;;;;;4.38;3.38;;;717.40;947.20;;;;;;5080411;28;20052;-86
2021/06/03 09:52:18;;;;;;;5.90;2.50;;;717.50;921.60;;;;;;5083345;28;20027;-83
2021/06/03 09:54:56;;;;;;;4.25;2.30;;;717.20;947.20;;;;;;5094965;28;20085;-81
2021/06/03 09:57:29;;;;;;;6.55;2.63;;;717.20;921.60;;;;;;5083414;28;20089;-82
2021/06/03 10:00:09;;;;;;;6.07;3.00;;;742.40;947.20;;;;;;5080899;28;20488;-81
2021/06/03 10:02:38;;;;;;;3.33;2.33;;;742.40;947.20;;;;;;5081661;28;20127;-81
2021/06/03 10:05:23;;;;;;;7.97;2.72;;;717.70;921.60;;;;;;5085173;28;20016;-81
2021/06/03 10:08:05;;;;;;;6.18;2.60;;;743.00;921.60;;;;;;5080537;28;20078;-82
2021/06/03 10:10:34;;;;;;;4.63;2.92;;;743.10;921.60;;;;;;5082621;28;20115;-81
2021/06/03 10:13:08;;;;;;;5.68;2.75;;;717.50;921.60;;;;;;5083116;28;20333;-81
2021/06/03 10:15:39;;;;;;;3.97;2.65;;;717.20;921.60;;;;;;5084177;28;20046;-82
2021/06/03 10:18:11;;;;;;;4.28;2.60;;;691.70;947.20;;;;;;5079620;28;20024;-84
2021/06/03 10:20:43;;;;;;;8.55;2.80;;;691.90;947.20;;;;;;5080380;28;20492;-83
2021/06/03 10:23:19;;;;;;;4.97;2.90;;;717.10;947.20;;;;;;5088353;28;20060;-82
2021/06/03 10:25:45;;;;;;;;;;;717.40;921.60;;;;;;5086233;28;20029;-83
2021/06/03 10:28:11;;;;;;;;;;;742.50;947.20;;;;;;5082973;28;19915;-80
2021/06/03 10:30:39;;;;;;;6.88;3.05;;;742.80;921.60;;;;;;5081270;28;19905;-81
2021/06/03 10:33:17;;;;;;;5.75;2.72;;;742.70;921.60;;;;;;5084894;28;20032;-83
2021/06/03 10:35:45;;;;;;;4.20;2.63;;;742.90;921.60;;;;;;5086481;28;20109;-83
2021/06/03 10:38:12;;;;;;;7.30;4.20;;;742.90;896.00;;;;;;5084207;28;20024;-84
2021/06/03 10:40:44;;;;;;;3.83;2.70;;;742.60;921.60;;;;;;5085407;28;20524;-83
2021/06/03 10:43:13;;;;;;;4.13;2.45;;;742.70;896.00;;;;;;5082122;28;20028;-81
2021/06/03 10:45:41;;;;;;;6.35;2.90;;;743.00;870.40;;;;;;5091694;28;20477;-85
2021/06/03 10:48:07;;;;;;;5.18;2.28;;;743.00;896.00;;;;;;5085186;28;20107;-84
2021/06/03 10:50:48;;;;;;;7.75;2.75;;;768.20;870.40;;;;;;5087546;28;20047;-86
2021/06/03 10:53:20;;;;;;;2.67;2.17;;;743.30;870.40;;;;;;5086138;28;20035;-84
2021/06/03 10:55:54;;;;;;;6.05;2.53;;;768.30;870.40;;;;;;5084041;28;20032;-82
2021/06/03 10:58:35;;;;;;;8.30;2.97;;;768.00;870.40;;;;;;5080829;28;20024;-81
2021/06/03 11:01:03;;;;;;;4.18;3.00;;;768.60;844.80;;;;;;5081818;28;20024;-81
2021/06/03 11:04:04;;;;;;;6.00;2.80;;;768.60;870.40;;;;;;5079878;28;20435;-81
2021/06/03 11:06:42;;;;;;;4.55;2.47;;;793.80;870.40;;;;;;5083881;28;20036;-79
2021/06/03 11:09:08;;;;;;;4.70;2.78;;;768.70;844.80;;;;;;5084984;28;20060;-82
2021/06/03 11:11:38;;;;;;;4.80;2.78;;;768.80;819.20;;;;;;5083737;28;20361;-80
2021/06/03 11:14:11;;;;;;;5.78;2.78;;;793.80;844.80;;;;;;5085746;28;20041;-78
2021/06/03 11:16:38;;;;;;;3.45;2.10;;;793.80;844.80;;;;;;5074117;28;20031;-79
2021/06/03 11:19:03;;;;;;;3.22;2.40;;;793.90;844.80;;;;;;5079621;28;20099;-76
2021/06/03 11:21:38;;;;;;;7.15;2.70;;;793.80;844.80;;;;;;5081741;28;20115;-76
2021/06/03 11:24:11;;;;;;;4.20;2.78;;;768.50;870.40;;;;;;5083612;28;21610;-79
2021/06/03 11:26:37;;;;;;;4.53;2.90;;;768.60;844.80;;;;;;5086598;28;20038;-79
2021/06/03 11:29:16;;;;;;;4.70;2.33;;;793.90;844.80;;;;;;5080881;28;20025;-76
2021/06/03 11:31:49;;;;;;;4.53;2.72;;;794.00;844.80;;;;;;5087877;28;20054;-80
2021/06/03 11:34:23;;;;;;;8.15;2.63;;;793.90;819.20;;;;;;5082512;28;20797;-78
2021/06/03 11:37:03;;;;;;;4.32;2.70;;;793.60;844.80;;;;;;5083931;28;20032;-87
2021/06/03 11:39:32;;;;;;;5.03;2.83;;;768.20;819.20;;;;;;5074332;28;20055;-78
2021/06/03 11:42:18;;;;;;;7.88;3.30;;;768.50;844.80;;;;;;5080135;28;20036;-79
2021/06/03 11:45:04;;;;;;;3.67;2.45;;;768.70;819.20;;;;;;5084167;28;20028;-79
2021/06/03 11:47:37;;;;;;;5.73;2.50;;;793.80;819.20;;;;;;5086703;28;20023;-79
2021/06/03 11:50:10;;;;;;;5.00;2.80;;;794.20;819.20;;;;;;5086875;28;20255;-78
2021/06/03 11:52:36;;;;;;;4.85;2.40;;;794.30;819.20;;;;;;5088499;28;20106;-79
2021/06/03 11:55:08;;;;;;;3.33;2.72;;;794.40;844.80;;;;;;5089813;28;20089;-78
2021/06/03 11:57:36;;;;;;;3.42;2.30;;;794.50;819.20;;;;;;5091519;28;20036;-78
2021/06/03 12:00:05;;;;;;;4.78;2.58;;;794.20;844.80;;;;;;5088980;28;20098;-79
2021/06/03 12:02:42;;;;;;;8.10;4.28;;;768.70;819.20;;;;;;5082695;28;20098;-78
2021/06/03 12:05:13;;;;;;;4.60;3.40;;;768.80;819.20;;;;;;5096193;28;20071;-78
2021/06/03 12:07:50;;;;;;;7.28;2.42;;;768.50;819.20;;;;;;5098665;28;20043;-78
2021/06/03 12:10:40;;;;;;;4.00;3.05;;;793.60;844.80;;;;;;5096552;28;20024;-79
2021/06/03 12:13:16;;;;;;;4.93;2.45;;;768.30;819.20;;;;;;5093172;28;20024;-78
2021/06/03 12:15:42;;;;;;;4.13;2.30;;;794.00;819.20;;;;;;5080836;28;20032;-79
2021/06/03 12:18:09;;;;;;;5.60;3.13;;;819.40;819.20;;;;;;5097097;28;20399;-81
2021/06/03 12:20:34;;;;;;;3.55;2.05;;;819.30;793.60;;;;;;5091485;28;20507;-81
2021/06/03 12:23:09;;;;;;;4.13;2.47;;;819.20;819.20;;;;;;5093353;28;20032;-80
2021/06/03 12:25:36;;;;;;;5.97;2.23;;;819.70;793.60;;;;;;5093021;28;20446;-81
2021/06/03 12:28:03;;;;;;;6.30;2.70;;;845.00;819.20;;;;;;5088452;28;20107;-81